Time;durP1;ratioP1;P1;durP2;ratioP2;P2;SDS_P1;SDS_P2;PMS_P1;PMS_P2;Temp;Humidity;BMP_temperature;BMP_pressure;BME280_temperature;BME280_humidity;BME280_pressure;Samples;Min_cycle;Max_cycle;Signal;HPM_P1;HPM_P2
2022/04/24 00:02:12;;;;;;;23.80;16.45;;;;;;;;;;5094882;28;20305;-44
2022/04/24 00:04:40;;;;;;;21.85;15.80;;;;;;;;;;5095182;28;20581;-44
2022/04/24 00:07:08;;;;;;;24.73;17.90;;;;;;;;;;5094925;28;20650;-44
2022/04/24 00:09:37;;;;;;;19.33;13.70;;;;;;;;;;5094806;28;20293;-44
2022/04/24 00:12:06;;;;;;;17.70;14.13;;;;;;;;;;5094954;28;20219;-45
2022/04/24 00:14:33;;;;;;;17.57;13.07;;;;;;;;;;5094844;28;20209;-44
2022/04/24 00:17:01;;;;;;;18.10;12.98;;;;;;;;;;5095012;28;20203;-44
2022/04/24 00:19:28;;;;;;;18.77;13.27;;;;;;;;;;5095009;28;20234;-44
2022/04/24 00:21:57;;;;;;;15.30;11.88;;;;;;;;;;5094738;28;20206;-48
2022/04/24 00:24:25;;;;;;;15.07;12.05;;;;;;;;;;5095649;28;20206;-44
2022/04/24 00:26:54;;;;;;;15.18;11.88;;;;;;;;;;5094698;28;20218;-43
2022/04/24 00:29:21;;;;;;;17.98;13.75;;;;;;;;;;5094876;28;20256;-45
2022/04/24 00:31:48;;;;;;;17.80;12.98;;;;;;;;;;5094487;28;20218;-43
2022/04/24 00:34:16;;;;;;;19.50;14.05;;;;;;;;;;5094935;28;20198;-44
2022/04/24 00:36:45;;;;;;;19.30;14.18;;;;;;;;;;5094754;28;20268;-46
2022/04/24 00:39:13;;;;;;;21.60;14.48;;;;;;;;;;5094478;28;20499;-44
2022/04/24 00:41:59;;;;;;;17.13;12.23;;;;;;;;;;5094902;28;20248;-44
2022/04/24 00:44:27;;;;;;;18.70;13.43;;;;;;;;;;5094914;28;20214;-45
2022/04/24 00:47:17;;;;;;;26.02;16.00;;;;;;;;;;5094509;28;20220;-45
2022/04/24 00:49:45;;;;;;;18.50;13.68;;;;;;;;;;5094560;28;20702;-45
2022/04/24 00:52:13;;;;;;;17.23;12.63;;;;;;;;;;5094683;28;20226;-46
2022/04/24 00:54:40;;;;;;;38.33;30.25;;;;;;;;;;5094583;28;20237;-45
2022/04/24 00:57:10;;;;;;;25.70;20.05;;;;;;;;;;5094524;28;20217;-44
2022/04/24 00:59:37;;;;;;;20.05;15.10;;;;;;;;;;5094663;28;20256;-46
2022/04/24 01:02:06;;;;;;;40.53;22.02;;;;;;;;;;5094383;28;20633;-47
2022/04/24 01:04:34;;;;;;;27.23;17.27;;;;;;;;;;5095074;28;20203;-47
2022/04/24 01:07:02;;;;;;;26.07;16.47;;;;;;;;;;5094520;28;20202;-47
2022/04/24 01:09:32;;;;;;;19.90;14.13;;;;;;;;;;5093565;28;20633;-47
2022/04/24 01:12:00;;;;;;;15.80;11.33;;;;;;;;;;5093265;28;20226;-48
2022/04/24 01:14:28;;;;;;;17.90;11.27;;;;;;;;;;5094226;28;20202;-48
2022/04/24 01:16:55;;;;;;;16.13;11.67;;;;;;;;;;5097073;28;20222;-47
2022/04/24 01:19:25;;;;;;;14.32;11.32;;;;;;;;;;5097891;28;20299;-48
2022/04/24 01:21:53;;;;;;;14.65;10.85;;;;;;;;;;5097795;28;20728;-47
2022/04/24 01:24:22;;;;;;;15.13;11.77;;;;;;;;;;5097777;28;20241;-47
2022/04/24 01:26:49;;;;;;;14.80;11.80;;;;;;;;;;5097723;28;20207;-47
2022/04/24 01:29:19;;;;;;;19.15;13.80;;;;;;;;;;5097889;28;20272;-47
2022/04/24 01:31:50;;;;;;;16.92;12.48;;;;;;;;;;5096194;28;20229;-49
2022/04/24 01:34:19;;;;;;;22.02;15.45;;;;;;;;;;5097718;28;20621;-47
2022/04/24 01:36:47;;;;;;;18.02;13.32;;;;;;;;;;5097592;28;20209;-47
2022/04/24 01:39:15;;;;;;;18.48;13.10;;;;;;;;;;5097513;28;20339;-47
2022/04/24 01:41:44;;;;;;;18.58;12.15;;;;;;;;;;5096552;28;20198;-47
2022/04/24 01:44:11;;;;;;;17.17;13.15;;;;;;;;;;5097541;28;20210;-48
2022/04/24 01:46:38;;;;;;;14.38;11.50;;;;;;;;;;5097639;28;20217;-46
2022/04/24 01:49:05;;;;;;;16.70;13.20;;;;;;;;;;5097686;28;20211;-47
2022/04/24 01:51:33;;;;;;;16.95;13.00;;;;;;;;;;5097201;28;20655;-46
2022/04/24 01:54:00;;;;;;;20.83;14.70;;;;;;;;;;5097084;28;20238;-47
2022/04/24 01:56:27;;;;;;;14.52;11.43;;;;;;;;;;5097195;28;20206;-48
2022/04/24 01:58:54;;;;;;;18.10;13.13;;;;;;;;;;5097266;28;20209;-47
2022/04/24 02:01:21;;;;;;;18.90;14.25;;;;;;;;;;5097061;28;20203;-48
2022/04/24 02:03:49;;;;;;;19.13;13.57;;;;;;;;;;5097373;28;20203;-47
2022/04/24 02:06:16;;;;;;;18.10;13.57;;;;;;;;;;5097222;28;20205;-47
2022/04/24 02:08:43;;;;;;;16.95;12.73;;;;;;;;;;5096365;28;20198;-48
2022/04/24 02:11:11;;;;;;;17.27;13.18;;;;;;;;;;5096949;28;20320;-47
2022/04/24 02:13:38;;;;;;;16.63;12.48;;;;;;;;;;5097274;28;20238;-47
2022/04/24 02:16:05;;;;;;;13.90;11.82;;;;;;;;;;5096942;28;20199;-47
2022/04/24 02:18:33;;;;;;;16.95;12.88;;;;;;;;;;5096618;28;20199;-48
2022/04/24 02:21:00;;;;;;;16.40;11.27;;;;;;;;;;5096642;28;20223;-46
2022/04/24 02:23:27;;;;;;;15.30;11.68;;;;;;;;;;5097279;28;20234;-47
2022/04/24 02:25:55;;;;;;;16.17;11.90;;;;;;;;;;5096718;28;20202;-47
2022/04/24 02:28:22;;;;;;;15.30;11.73;;;;;;;;;;5095484;28;20667;-47
2022/04/24 02:30:49;;;;;;;15.35;11.82;;;;;;;;;;5096697;28;20272;-47
2022/04/24 02:33:17;;;;;;;16.27;12.00;;;;;;;;;;5096607;28;20287;-47
2022/04/24 02:35:44;;;;;;;25.35;17.50;;;;;;;;;;5096915;28;20199;-47
2022/04/24 02:38:11;;;;;;;31.27;19.00;;;;;;;;;;5096835;28;20199;-48
2022/04/24 02:40:39;;;;;;;26.23;17.55;;;;;;;;;;5096456;28;20203;-48
2022/04/24 02:43:06;;;;;;;33.58;20.90;;;;;;;;;;5096249;28;20275;-48
2022/04/24 02:45:33;;;;;;;20.60;14.13;;;;;;;;;;5095876;28;20202;-49
2022/04/24 02:48:02;;;;;;;18.88;14.40;;;;;;;;;;5095973;28;20206;-48
2022/04/24 02:50:29;;;;;;;18.10;13.55;;;;;;;;;;5095408;28;20355;-47
2022/04/24 02:52:56;;;;;;;21.35;16.08;;;;;;;;;;5096215;28;20295;-48
2022/04/24 02:55:24;;;;;;;20.13;13.73;;;;;;;;;;5095808;28;20234;-47
2022/04/24 02:57:53;;;;;;;21.20;14.30;;;;;;;;;;5095812;28;20210;-48
2022/04/24 03:00:22;;;;;;;29.65;18.98;;;;;;;;;;5095662;28;20203;-50
2022/04/24 03:02:50;;;;;;;26.20;18.08;;;;;;;;;;5095684;28;20207;-48
2022/04/24 03:05:20;;;;;;;31.13;19.75;;;;;;;;;;5095799;28;20297;-49
2022/04/24 03:07:48;;;;;;;22.95;16.70;;;;;;;;;;5095662;28;20198;-48
2022/04/24 03:10:16;;;;;;;28.53;19.77;;;;;;;;;;5095609;28;20203;-49
2022/04/24 03:12:44;;;;;;;19.67;14.60;;;;;;;;;;5095327;28;20228;-48
2022/04/24 03:15:12;;;;;;;18.87;14.10;;;;;;;;;;5095763;28;20207;-49
2022/04/24 03:17:40;;;;;;;17.67;13.23;;;;;;;;;;5095602;28;20214;-48
2022/04/24 03:20:09;;;;;;;17.63;13.68;;;;;;;;;;5095613;28;20194;-48
2022/04/24 03:22:36;;;;;;;19.02;13.07;;;;;;;;;;5095278;28;20198;-47
2022/04/24 03:25:06;;;;;;;22.57;17.03;;;;;;;;;;5095365;28;20214;-50
2022/04/24 03:27:33;;;;;;;20.13;14.33;;;;;;;;;;5095316;28;20199;-47
2022/04/24 03:30:00;;;;;;;19.13;13.87;;;;;;;;;;5095483;28;20213;-53
2022/04/24 03:32:31;;;;;;;18.42;12.77;;;;;;;;;;5095305;28;20207;-49
2022/04/24 03:34:59;;;;;;;16.23;12.88;;;;;;;;;;5095103;28;20205;-53
2022/04/24 03:37:26;;;;;;;18.95;13.68;;;;;;;;;;5093968;28;20205;-52
2022/04/24 03:39:54;;;;;;;20.08;13.75;;;;;;;;;;5093476;28;20279;-53
2022/04/24 03:42:21;;;;;;;16.50;13.50;;;;;;;;;;5094754;28;20217;-48
2022/04/24 03:44:48;;;;;;;19.17;13.65;;;;;;;;;;5095063;28;20224;-48
2022/04/24 03:47:16;;;;;;;19.70;13.95;;;;;;;;;;5093084;28;20206;-47
2022/04/24 03:49:43;;;;;;;21.42;15.23;;;;;;;;;;5094577;28;20199;-50
2022/04/24 03:52:11;;;;;;;20.50;13.98;;;;;;;;;;5095357;28;20232;-49
2022/04/24 03:54:38;;;;;;;18.58;14.43;;;;;;;;;;5095323;28;20242;-48
2022/04/24 03:57:06;;;;;;;20.58;14.90;;;;;;;;;;5095238;28;20203;-52
2022/04/24 03:59:33;;;;;;;20.67;15.07;;;;;;;;;;5094498;28;20239;-48
2022/04/24 04:02:02;;;;;;;19.80;15.32;;;;;;;;;;5094893;28;20210;-50
2022/04/24 04:04:30;;;;;;;20.30;15.17;;;;;;;;;;5095005;28;20203;-49
2022/04/24 04:06:57;;;;;;;22.57;16.17;;;;;;;;;;5095020;28;20213;-49
2022/04/24 04:09:24;;;;;;;21.13;15.93;;;;;;;;;;5094867;28;20209;-48
2022/04/24 04:11:51;;;;;;;21.93;15.60;;;;;;;;;;5095570;28;20266;-51
2022/04/24 04:14:18;;;;;;;20.98;15.40;;;;;;;;;;5095477;28;20227;-50
2022/04/24 04:16:45;;;;;;;22.92;15.38;;;;;;;;;;5092620;28;20264;-48
2022/04/24 04:19:13;;;;;;;22.40;15.20;;;;;;;;;;5093375;28;20207;-50
2022/04/24 04:21:40;;;;;;;21.17;15.90;;;;;;;;;;5083920;28;20205;-47
2022/04/24 04:24:08;;;;;;;21.20;16.55;;;;;;;;;;5083950;28;20207;-49
2022/04/24 04:26:35;;;;;;;20.33;14.85;;;;;;;;;;5089413;28;20201;-47
2022/04/24 04:29:03;;;;;;;23.70;15.40;;;;;;;;;;5093165;28;20199;-49
2022/04/24 04:31:30;;;;;;;22.20;15.55;;;;;;;;;;5092001;28;20207;-52
2022/04/24 04:33:57;;;;;;;22.33;16.98;;;;;;;;;;5067584;22;20282;-55
2022/04/24 04:36:25;;;;;;;23.92;16.33;;;;;;;;;;5059847;28;20230;-51
2022/04/24 04:38:52;;;;;;;23.38;16.70;;;;;;;;;;5065752;28;20288;-49
2022/04/24 04:41:19;;;;;;;22.58;16.52;;;;;;;;;;5063241;28;20235;-50
2022/04/24 04:43:46;;;;;;;22.48;17.27;;;;;;;;;;5065379;28;20231;-54
2022/04/24 04:46:16;;;;;;;22.08;17.52;;;;;;;;;;5061414;28;20579;-54
2022/04/24 04:48:44;;;;;;;23.23;18.00;;;;;;;;;;5062115;28;20219;-52
2022/04/24 04:51:11;;;;;;;26.05;18.48;;;;;;;;;;5058411;28;20250;-49
2022/04/24 04:53:38;;;;;;;29.65;18.38;;;;;;;;;;5069288;28;20661;-53
2022/04/24 04:56:05;;;;;;;27.02;19.88;;;;;;;;;;5067269;28;20226;-50
2022/04/24 04:58:32;;;;;;;26.75;19.02;;;;;;;;;;5067685;28;21191;-51
2022/04/24 05:01:00;;;;;;;27.23;20.38;;;;;;;;;;5063938;28;20235;-49
2022/04/24 05:03:27;;;;;;;26.77;19.92;;;;;;;;;;5065107;28;21007;-51
2022/04/24 05:05:55;;;;;;;28.30;21.50;;;;;;;;;;5062522;28;20824;-50
2022/04/24 05:08:22;;;;;;;30.17;22.33;;;;;;;;;;5065895;28;20215;-49
2022/04/24 05:10:49;;;;;;;29.73;21.52;;;;;;;;;;5065632;28;20298;-51
2022/04/24 05:13:16;;;;;;;28.30;21.55;;;;;;;;;;5064568;28;20678;-49
2022/04/24 05:15:43;;;;;;;31.17;22.90;;;;;;;;;;5065360;28;20223;-52
2022/04/24 05:18:10;;;;;;;44.30;34.15;;;;;;;;;;5064674;28;20243;-50
2022/04/24 05:20:38;;;;;;;32.90;22.90;;;;;;;;;;5067574;28;20212;-47
2022/04/24 05:23:07;;;;;;;29.05;21.55;;;;;;;;;;5070691;28;20669;-49
2022/04/24 05:25:35;;;;;;;26.95;19.40;;;;;;;;;;5069174;28;20641;-51
2022/04/24 05:28:05;;;;;;;27.92;20.40;;;;;;;;;;5070543;28;20235;-48
2022/04/24 05:30:33;;;;;;;25.67;18.75;;;;;;;;;;5070182;28;20227;-49
2022/04/24 05:33:00;;;;;;;25.10;17.50;;;;;;;;;;5071353;28;20744;-52
2022/04/24 05:35:28;;;;;;;24.80;17.58;;;;;;;;;;5066273;28;20220;-52
2022/04/24 05:37:55;;;;;;;21.70;16.95;;;;;;;;;;5064043;28;20220;-49
2022/04/24 05:40:23;;;;;;;21.45;16.98;;;;;;;;;;5065070;28;20211;-50
2022/04/24 05:42:54;;;;;;;21.35;16.33;;;;;;;;;;5065767;28;20220;-52
2022/04/24 05:45:24;;;;;;;19.20;15.10;;;;;;;;;;5071419;28;20234;-49
2022/04/24 05:47:56;;;;;;;20.90;15.35;;;;;;;;;;5065834;28;20689;-51
2022/04/24 05:50:24;;;;;;;20.13;14.15;;;;;;;;;;5065133;28;20719;-49
2022/04/24 05:52:55;;;;;;;15.27;11.43;;;;;;;;;;5065641;28;20595;-49
2022/04/24 05:55:23;;;;;;;14.48;10.88;;;;;;;;;;5071913;28;20631;-53
2022/04/24 05:57:51;;;;;;;13.70;10.43;;;;;;;;;;5065877;28;20736;-50
2022/04/24 06:00:19;;;;;;;13.32;8.88;;;;;;;;;;5062415;28;20220;-52
2022/04/24 06:02:53;;;;;;;11.90;9.07;;;;;;;;;;5062684;28;20236;-50
2022/04/24 06:05:22;;;;;;;12.50;9.00;;;;;;;;;;5064293;28;20224;-48
2022/04/24 06:07:49;;;;;;;14.68;9.85;;;;;;;;;;5065109;28;20219;-48
2022/04/24 06:10:16;;;;;;;11.88;9.50;;;;;;;;;;5064603;28;20602;-45
2022/04/24 06:12:54;;;;;;;11.93;8.95;;;;;;;;;;5063533;28;20231;-49
2022/04/24 06:15:26;;;;;;;11.70;9.00;;;;;;;;;;5062910;28;20222;-47
2022/04/24 06:17:55;;;;;;;14.35;9.63;;;;;;;;;;5064049;28;20227;-50
2022/04/24 06:20:24;;;;;;;13.95;9.90;;;;;;;;;;5061551;28;20227;-53
2022/04/24 06:22:53;;;;;;;10.25;8.57;;;;;;;;;;5062392;28;20750;-53
2022/04/24 06:25:25;;;;;;;9.63;8.30;;;;;;;;;;5063099;28;20215;-52
2022/04/24 06:27:53;;;;;;;11.00;9.45;;;;;;;;;;5061157;28;20615;-51
2022/04/24 06:30:22;;;;;;;11.90;8.25;;;;;;;;;;5063602;28;20623;-48
2022/04/24 06:32:50;;;;;;;13.68;8.93;;;;;;;;;;5062545;28;20227;-47
2022/04/24 06:35:18;;;;;;;10.40;8.35;;;;;;;;;;5062135;28;20686;-50
2022/04/24 06:37:53;;;;;;;11.93;8.05;;;;;;;;;;5063364;28;20319;-48
2022/04/24 06:40:23;;;;;;;9.27;6.70;;;;;;;;;;5062210;28;20683;-47
2022/04/24 06:43:00;;;;;;;9.13;8.13;;;;;;;;;;5062403;28;20224;-47
2022/04/24 06:45:29;;;;;;;8.32;7.47;;;;;;;;;;5070023;28;20233;-47
2022/04/24 06:48:01;;;;;;;9.52;6.97;;;;;;;;;;5064080;28;20558;-50
2022/04/24 06:50:29;;;;;;;8.77;6.38;;;;;;;;;;5060458;28;20222;-55
2022/04/24 06:53:01;;;;;;;8.68;6.50;;;;;;;;;;5058778;28;20228;-52
2022/04/24 06:55:29;;;;;;;8.10;6.75;;;;;;;;;;5063380;28;20289;-47
2022/04/24 06:57:58;;;;;;;7.85;6.50;;;;;;;;;;5065598;28;20231;-48
2022/04/24 07:00:27;;;;;;;8.00;6.70;;;;;;;;;;5061898;28;20231;-49
2022/04/24 07:03:16;;;;;;;8.23;6.78;;;;;;;;;;5056968;28;20216;-48
2022/04/24 07:05:43;;;;;;;7.85;6.50;;;;;;;;;;5063835;28;20616;-50
2022/04/24 07:08:11;;;;;;;10.77;8.05;;;;;;;;;;5056712;28;20669;-51
2022/04/24 07:10:38;;;;;;;9.85;8.00;;;;;;;;;;5063136;28;20243;-48
2022/04/24 07:13:06;;;;;;;8.77;7.88;;;;;;;;;;5062254;28;20315;-48
2022/04/24 07:15:35;;;;;;;11.52;8.50;;;;;;;;;;5061336;28;20232;-48
2022/04/24 07:18:03;;;;;;;11.73;8.82;;;;;;;;;;5059651;28;20220;-50
2022/04/24 07:20:30;;;;;;;14.27;7.78;;;;;;;;;;5060441;28;20750;-47
2022/04/24 07:23:00;;;;;;;9.80;7.40;;;;;;;;;;5062638;28;20220;-51
2022/04/24 07:25:48;;;;;;;11.85;8.23;;;;;;;;;;5063495;28;20661;-48
2022/04/24 07:28:18;;;;;;;9.43;7.78;;;;;;;;;;5062788;28;20226;-47
2022/04/24 07:30:46;;;;;;;11.48;8.23;;;;;;;;;;5062766;28;20287;-49
2022/04/24 07:33:14;;;;;;;9.98;8.23;;;;;;;;;;5059616;28;20232;-50
2022/04/24 07:35:41;;;;;;;11.07;8.75;;;;;;;;;;5063932;28;20231;-50
2022/04/24 07:38:09;;;;;;;9.52;7.22;;;;;;;;;;5063855;28;20700;-48
2022/04/24 07:40:37;;;;;;;9.52;7.55;;;;;;;;;;5061838;28;20657;-52
2022/04/24 07:43:09;;;;;;;8.00;7.07;;;;;;;;;;5056331;28;20809;-52
2022/04/24 07:45:39;;;;;;;11.20;7.55;;;;;;;;;;5066044;28;20231;-51
2022/04/24 07:48:08;;;;;;;8.13;6.97;;;;;;;;;;5064922;28;20236;-48
2022/04/24 07:50:37;;;;;;;8.20;7.07;;;;;;;;;;5048450;28;20220;-49
2022/04/24 07:53:05;;;;;;;9.05;7.47;;;;;;;;;;5064289;28;20224;-48
2022/04/24 07:55:33;;;;;;;8.30;6.65;;;;;;;;;;5060363;28;20227;-49
2022/04/24 07:58:00;;;;;;;10.38;6.65;;;;;;;;;;5061899;28;20666;-49
2022/04/24 08:00:30;;;;;;;13.40;6.90;;;;;;;;;;5064663;28;20227;-49
2022/04/24 08:03:08;;;;;;;8.15;6.65;;;;;;;;;;5061037;28;20302;-48
2022/04/24 08:05:43;;;;;;;6.88;5.75;;;;;;;;;;5053980;28;20692;-49
2022/04/24 08:08:14;;;;;;;7.47;6.20;;;;;;;;;;5053789;28;20705;-48
2022/04/24 08:10:45;;;;;;;9.65;5.45;;;;;;;;;;5053514;28;20712;-51
2022/04/24 08:13:12;;;;;;;7.75;6.03;;;;;;;;;;5056530;28;20238;-49
2022/04/24 08:15:41;;;;;;;8.15;6.45;;;;;;;;;;5062479;28;20231;-50
2022/04/24 08:18:12;;;;;;;7.13;6.28;;;;;;;;;;5060062;28;20235;-51
2022/04/24 08:20:40;;;;;;;8.00;7.07;;;;;;;;;;5062669;28;20242;-51
2022/04/24 08:23:08;;;;;;;10.82;7.05;;;;;;;;;;5062423;28;20219;-49
2022/04/24 08:25:37;;;;;;;7.38;5.93;;;;;;;;;;5063138;28;20250;-47
2022/04/24 08:28:14;;;;;;;7.07;6.38;;;;;;;;;;5066709;28;20214;-48
2022/04/24 08:30:43;;;;;;;8.50;7.07;;;;;;;;;;5065258;28;20231;-49
2022/04/24 08:33:10;;;;;;;9.57;7.30;;;;;;;;;;5065322;28;20604;-48
2022/04/24 08:35:38;;;;;;;10.18;7.03;;;;;;;;;;5064795;28;20284;-50
2022/04/24 08:38:05;;;;;;;8.98;7.80;;;;;;;;;;5066142;28;20891;-50
2022/04/24 08:40:33;;;;;;;9.05;7.53;;;;;;;;;;5064302;28;20250;-48
2022/04/24 08:43:00;;;;;;;9.40;7.47;;;;;;;;;;5066796;28;20251;-51
2022/04/24 08:45:30;;;;;;;9.13;7.60;;;;;;;;;;5063829;28;20553;-48
2022/04/24 08:47:58;;;;;;;13.93;8.35;;;;;;;;;;5064783;28;20224;-47
2022/04/24 08:50:28;;;;;;;11.15;8.43;;;;;;;;;;5071715;28;20290;-48
2022/04/24 08:52:57;;;;;;;14.65;8.15;;;;;;;;;;5066969;28;20673;-48
2022/04/24 08:55:32;;;;;;;12.25;6.90;;;;;;;;;;5066132;28;20281;-48
2022/04/24 08:58:01;;;;;;;8.68;7.55;;;;;;;;;;5065618;28;20576;-49
2022/04/24 09:00:29;;;;;;;8.48;7.45;;;;;;;;;;5063788;28;20601;-51
2022/04/24 09:02:59;;;;;;;8.40;7.43;;;;;;;;;;5067488;28;20223;-49
2022/04/24 09:05:30;;;;;;;9.48;7.15;;;;;;;;;;5063691;28;20223;-48
2022/04/24 09:08:07;;;;;;;9.55;7.28;;;;;;;;;;5065750;28;20230;-49
2022/04/24 09:10:56;;;;;;;9.85;7.28;;;;;;;;;;5069809;28;20226;-49
2022/04/24 09:16:34;;;;;;;11.35;7.70;;;;;;;;;;5076445;28;20246;-47
2022/04/24 09:19:26;;;;;;;9.95;8.10;;;;;;;;;;5066496;28;20224;-47
2022/04/24 09:22:01;;;;;;;10.20;7.78;;;;;;;;;;5051880;28;20288;-46
2022/04/24 09:24:42;;;;;;;9.15;8.02;;;;;;;;;;5063823;28;20253;-53
2022/04/24 09:27:11;;;;;;;12.48;8.13;;;;;;;;;;5064547;28;20219;-47
2022/04/24 09:29:40;;;;;;;9.88;8.07;;;;;;;;;;5057428;28;20235;-46
2022/04/24 09:32:12;;;;;;;10.32;8.27;;;;;;;;;;5054248;28;20266;-46
2022/04/24 09:34:40;;;;;;;10.57;8.13;;;;;;;;;;5054922;28;20250;-46
2022/04/24 09:37:09;;;;;;;10.55;7.60;;;;;;;;;;5055852;28;20227;-46
2022/04/24 09:39:37;;;;;;;13.55;8.50;;;;;;;;;;5056112;28;20230;-48
2022/04/24 09:42:07;;;;;;;10.32;8.77;;;;;;;;;;5056735;28;20732;-47
2022/04/24 09:44:40;;;;;;;9.00;8.07;;;;;;;;;;5056323;28;20231;-47
2022/04/24 09:47:27;;;;;;;9.82;7.55;;;;;;;;;;5066302;28;20227;-46
2022/04/24 09:49:54;;;;;;;9.25;8.18;;;;;;;;;;5068963;28;20238;-47
2022/04/24 09:52:23;;;;;;;12.85;9.52;;;;;;;;;;5056254;28;20228;-47
2022/04/24 09:54:53;;;;;;;12.45;9.90;;;;;;;;;;5056264;28;20239;-47
2022/04/24 09:57:23;;;;;;;12.48;9.50;;;;;;;;;;5056842;28;20639;-58
2022/04/24 09:59:53;;;;;;;12.15;9.23;;;;;;;;;;5056871;28;20189;-58
2022/04/24 10:02:20;;;;;;;12.48;8.88;;;;;;;;;;5039037;28;20200;-58
2022/04/24 10:04:48;;;;;;;12.93;9.90;;;;;;;;;;5056886;28;20299;-57
2022/04/24 10:07:17;;;;;;;12.68;9.00;;;;;;;;;;5056933;28;20223;-58
2022/04/24 10:09:46;;;;;;;11.98;8.85;;;;;;;;;;5055398;28;20651;-58
2022/04/24 10:12:18;;;;;;;11.98;8.70;;;;;;;;;;5055434;28;20254;-58
2022/04/24 10:14:52;;;;;;;13.45;9.75;;;;;;;;;;5055841;28;20272;-58
2022/04/24 10:17:47;;;;;;;11.57;9.55;;;;;;;;;;5055704;28;20662;-58
2022/04/24 10:20:53;;;;;;;13.27;9.68;;;;;;;;;;5056978;28;20552;-58
2022/04/24 10:23:33;;;;;;;11.57;9.60;;;;;;;;;;5003450;28;20636;-57
2022/04/24 10:26:01;;;;;;;11.50;9.93;;;;;;;;;;5056755;28;20593;-57
2022/04/24 10:28:37;;;;;;;14.32;9.88;;;;;;;;;;5056330;28;20200;-57
2022/04/24 10:31:06;;;;;;;16.27;10.23;;;;;;;;;;5056855;28;20188;-58
2022/04/24 10:33:35;;;;;;;11.13;9.60;;;;;;;;;;5056924;28;20232;-57
2022/04/24 10:36:11;;;;;;;14.90;9.95;;;;;;;;;;5056663;28;20242;-57
2022/04/24 10:38:48;;;;;;;14.48;10.60;;;;;;;;;;5056279;28;20259;-57
2022/04/24 10:41:25;;;;;;;13.75;10.38;;;;;;;;;;5056429;28;20207;-58
2022/04/24 10:44:08;;;;;;;12.77;10.52;;;;;;;;;;5056502;28;20211;-57
2022/04/24 10:46:39;;;;;;;13.48;10.77;;;;;;;;;;5056537;28;20208;-58
2022/04/24 10:49:11;;;;;;;13.45;11.15;;;;;;;;;;5054914;28;20269;-58
2022/04/24 10:51:40;;;;;;;12.70;10.63;;;;;;;;;;5056385;28;20275;-57
2022/04/24 10:54:12;;;;;;;12.85;10.18;;;;;;;;;;5063371;28;20207;-57
2022/04/24 10:56:49;;;;;;;12.13;10.15;;;;;;;;;;5058641;28;20681;-62
2022/04/24 10:59:20;;;;;;;11.65;9.57;;;;;;;;;;5071142;28;20235;-59
2022/04/24 11:01:52;;;;;;;13.48;11.55;;;;;;;;;;5070816;28;20637;-52
2022/04/24 11:04:20;;;;;;;13.88;10.70;;;;;;;;;;5068595;28;20223;-57
2022/04/24 11:06:54;;;;;;;12.38;11.07;;;;;;;;;;5062152;28;20302;-55
2022/04/24 11:09:23;;;;;;;12.30;10.27;;;;;;;;;;5064785;28;20305;-58
2022/04/24 11:11:53;;;;;;;13.77;10.25;;;;;;;;;;5061648;28;20285;-54
2022/04/24 11:14:23;;;;;;;11.93;9.85;;;;;;;;;;5062354;28;20219;-54
2022/04/24 11:16:50;;;;;;;11.40;10.20;;;;;;;;;;5063424;28;20844;-56
2022/04/24 11:19:28;;;;;;;12.88;10.82;;;;;;;;;;5062237;28;20224;-58
2022/04/24 11:21:57;;;;;;;12.32;10.07;;;;;;;;;;5061422;28;20227;-51
2022/04/24 11:24:29;;;;;;;13.50;11.07;;;;;;;;;;5063203;28;20665;-60
2022/04/24 11:27:00;;;;;;;13.40;10.88;;;;;;;;;;5063133;28;20226;-57
2022/04/24 11:29:28;;;;;;;13.75;10.60;;;;;;;;;;5061345;28;20223;-51
2022/04/24 11:31:55;;;;;;;13.65;11.60;;;;;;;;;;5060812;28;20224;-61
2022/04/24 11:34:24;;;;;;;12.73;10.18;;;;;;;;;;5060151;28;20685;-62
2022/04/24 11:36:56;;;;;;;11.90;10.70;;;;;;;;;;5060765;28;20219;-61
2022/04/24 11:39:24;;;;;;;12.43;10.95;;;;;;;;;;5057972;28;20277;-57
2022/04/24 11:42:00;;;;;;;13.75;10.98;;;;;;;;;;5062307;28;20219;-59
2022/04/24 11:50:14;;;;;;;12.05;10.55;;;;;;;;;;5063023;28;20226;-58
2022/04/24 11:53:01;;;;;;;12.40;10.77;;;;;;;;;;5063551;28;20264;-58
2022/04/24 11:56:01;;;;;;;12.63;10.85;;;;;;;;;;5064284;28;20230;-59
2022/04/24 11:58:16;;;;;;;12.32;11.00;;;;;;;;;;5064605;28;20221;-57
2022/04/24 12:00:45;;;;;;;12.07;10.88;;;;;;;;;;5064129;28;20215;-58
2022/04/24 12:03:14;;;;;;;15.40;11.35;;;;;;;;;;5062608;28;20211;-61
2022/04/24 12:05:42;;;;;;;10.98;9.25;;;;;;;;;;5059962;28;20211;-59
2022/04/24 12:08:12;;;;;;;10.32;9.18;;;;;;;;;;5061566;28;20273;-60
2022/04/24 12:10:44;;;;;;;11.50;10.30;;;;;;;;;;5061770;28;20250;-59
2022/04/24 12:13:13;;;;;;;11.68;9.82;;;;;;;;;;5056136;28;20239;-61
2022/04/24 12:15:49;;;;;;;12.70;10.32;;;;;;;;;;5062224;28;20681;-62
2022/04/24 12:18:25;;;;;;;13.25;9.45;;;;;;;;;;5060526;28;20207;-59
2022/04/24 12:20:52;;;;;;;12.00;9.57;;;;;;;;;;5063461;28;20230;-59
2022/04/24 12:23:20;;;;;;;14.82;9.73;;;;;;;;;;5028189;28;20219;-59
2022/04/24 12:25:56;;;;;;;11.18;9.63;;;;;;;;;;5061096;28;20220;-57
2022/04/24 12:28:35;;;;;;;11.07;9.55;;;;;;;;;;5061302;28;20221;-50
2022/04/24 12:31:04;;;;;;;10.45;8.90;;;;;;;;;;5062732;28;20230;-52
2022/04/24 12:33:32;;;;;;;10.27;9.25;;;;;;;;;;5062105;28;20650;-60
2022/04/24 12:36:07;;;;;;;11.50;9.55;;;;;;;;;;5063013;28;20254;-63
2022/04/24 12:38:35;;;;;;;11.00;9.85;;;;;;;;;;5063537;28;20532;-61
2022/04/24 12:41:02;;;;;;;13.27;10.07;;;;;;;;;;5060200;28;20224;-53
2022/04/24 12:43:30;;;;;;;14.80;9.35;;;;;;;;;;5062194;28;20291;-60
2022/04/24 12:45:58;;;;;;;12.38;9.85;;;;;;;;;;5055660;28;20230;-61
2022/04/24 12:48:26;;;;;;;13.75;10.45;;;;;;;;;;5061562;28;20219;-58
2022/04/24 12:50:54;;;;;;;13.50;9.10;;;;;;;;;;5061835;28;20230;-56
2022/04/24 12:53:25;;;;;;;9.68;8.63;;;;;;;;;;5062245;28;20222;-56
2022/04/24 12:55:52;;;;;;;9.68;8.70;;;;;;;;;;5062277;28;20244;-58
2022/04/24 12:58:19;;;;;;;9.20;7.80;;;;;;;;;;5055418;28;20311;-58
2022/04/24 13:00:47;;;;;;;10.48;8.13;;;;;;;;;;5063545;28;20223;-55
2022/04/24 13:03:15;;;;;;;10.75;8.30;;;;;;;;;;5063637;28;20246;-52
2022/04/24 13:05:43;;;;;;;9.18;7.35;;;;;;;;;;5073139;28;20304;-57
2022/04/24 13:08:24;;;;;;;8.45;7.10;;;;;;;;;;5061424;28;20223;-56
2022/04/24 13:10:52;;;;;;;8.40;7.57;;;;;;;;;;5063394;28;20569;-61
2022/04/24 13:13:19;;;;;;;10.48;8.18;;;;;;;;;;5058038;28;20219;-57
2022/04/24 13:18:37;;;;;;;10.27;8.00;;;;;;;;;;5059517;28;20674;-59
2022/04/24 13:21:05;;;;;;;8.35;7.45;;;;;;;;;;5056611;28;20219;-59
2022/04/24 13:23:32;;;;;;;8.75;7.90;;;;;;;;;;5060593;28;20334;-62
2022/04/24 13:25:59;;;;;;;10.27;8.02;;;;;;;;;;5061012;28;20234;-59
2022/04/24 13:28:28;;;;;;;8.27;7.47;;;;;;;;;;5066717;28;20226;-57
2022/04/24 13:30:55;;;;;;;8.25;7.03;;;;;;;;;;5075242;28;20676;-56
2022/04/24 13:33:22;;;;;;;11.30;6.97;;;;;;;;;;5076738;28;20326;-54
2022/04/24 13:35:51;;;;;;;11.32;7.57;;;;;;;;;;5076573;28;20556;-53
2022/04/24 13:38:18;;;;;;;10.15;6.65;;;;;;;;;;5076499;28;20673;-57
2022/04/24 13:40:46;;;;;;;9.00;6.38;;;;;;;;;;5065419;28;20678;-53
2022/04/24 13:43:15;;;;;;;9.20;6.63;;;;;;;;;;5060471;28;20565;-54
2022/04/24 13:45:42;;;;;;;7.38;6.53;;;;;;;;;;5075074;28;20284;-56
2022/04/24 13:48:26;;;;;;;7.00;6.30;;;;;;;;;;5075318;28;20235;-50
2022/04/24 13:50:55;;;;;;;7.80;6.20;;;;;;;;;;5076344;28;20280;-55
2022/04/24 13:53:24;;;;;;;8.20;7.40;;;;;;;;;;5074591;28;20223;-56
2022/04/24 13:55:52;;;;;;;8.32;6.65;;;;;;;;;;5074937;28;20235;-49
2022/04/24 13:58:20;;;;;;;8.32;6.35;;;;;;;;;;5071834;28;20300;-57
2022/04/24 14:00:49;;;;;;;8.57;6.15;;;;;;;;;;5068069;28;20235;-47
2022/04/24 14:03:18;;;;;;;8.57;6.18;;;;;;;;;;5063566;28;20621;-48
2022/04/24 14:05:46;;;;;;;8.82;6.82;;;;;;;;;;5064910;28;20254;-59
2022/04/24 14:08:15;;;;;;;9.35;7.38;;;;;;;;;;5065503;28;20695;-59
2022/04/24 14:10:43;;;;;;;9.25;6.90;;;;;;;;;;5072875;28;20276;-53
2022/04/24 14:13:10;;;;;;;8.30;6.78;;;;;;;;;;5061076;28;20228;-54
2022/04/24 14:15:38;;;;;;;7.68;6.78;;;;;;;;;;5055652;28;20650;-54
2022/04/24 14:18:05;;;;;;;9.25;7.68;;;;;;;;;;5062844;28;20726;-55
2022/04/24 14:20:32;;;;;;;9.18;7.30;;;;;;;;;;5064650;28;20224;-51
2022/04/24 14:23:15;;;;;;;15.77;7.88;;;;;;;;;;5070745;28;20223;-56
2022/04/24 14:25:42;;;;;;;10.23;7.15;;;;;;;;;;5074858;28;20596;-55
2022/04/24 14:28:09;;;;;;;8.63;7.63;;;;;;;;;;5075884;28;20219;-55
2022/04/24 14:30:37;;;;;;;10.00;7.80;;;;;;;;;;5065871;28;20220;-60
2022/04/24 14:33:04;;;;;;;8.75;7.30;;;;;;;;;;5062943;28;20580;-59
2022/04/24 14:35:32;;;;;;;8.07;7.28;;;;;;;;;;5063292;28;20228;-55
2022/04/24 14:38:00;;;;;;;10.23;8.30;;;;;;;;;;5063081;28;20216;-58
2022/04/24 14:40:29;;;;;;;9.05;6.90;;;;;;;;;;5067109;28;20298;-58
2022/04/24 14:42:58;;;;;;;11.75;8.07;;;;;;;;;;5064615;28;20223;-55
2022/04/24 14:56:30;;;;;;;9.27;7.63;;;;;;;;;;5054965;28;20251;-58
2022/04/24 14:58:57;;;;;;;9.23;7.55;;;;;;;;;;5055105;28;20235;-59
2022/04/24 15:01:24;;;;;;;8.60;7.15;;;;;;;;;;5054537;28;20688;-60
2022/04/24 15:03:52;;;;;;;10.23;8.02;;;;;;;;;;5055043;28;20258;-59